createdAt,value
2022-10-01T00:01:53.898Z,27.75
2022-10-01T00:04:21.991Z,27.75
2022-10-01T00:06:50.010Z,26.48
2022-10-01T00:09:18.001Z,30.35
2022-10-01T00:11:46.005Z,31.80
2022-10-01T00:14:13.998Z,32.50
2022-10-01T00:16:43.412Z,30.73
2022-10-01T00:19:14.956Z,28.00
2022-10-01T00:21:43.041Z,28.48
2022-10-01T00:24:13.630Z,28.92
2022-10-01T00:26:45.604Z,27.70
2022-10-01T00:29:15.272Z,29.10
2022-10-01T00:31:44.957Z,25.90
2022-10-01T00:34:15.170Z,26.05
2022-10-01T00:36:43.470Z,26.08
2022-10-01T00:39:12.370Z,21.00
2022-10-01T00:41:40.537Z,25.45
2022-10-01T00:44:28.903Z,23.95
2022-10-01T00:47:02.994Z,25.10
2022-10-01T00:49:35.163Z,21.73
2022-10-01T00:52:06.645Z,23.30
2022-10-01T00:54:38.971Z,26.80
2022-10-01T00:57:08.447Z,24.33
2022-10-01T00:59:37.754Z,24.50
2022-10-01T01:02:07.187Z,19.80
2022-10-01T01:04:35.244Z,22.17
2022-10-01T01:07:05.669Z,22.90
2022-10-01T01:09:37.323Z,19.85
2022-10-01T01:12:13.250Z,22.35
2022-10-01T01:14:50.254Z,19.60
2022-10-01T01:17:25.831Z,17.75
2022-10-01T01:20:08.866Z,17.77
2022-10-01T01:22:42.977Z,19.75
2022-10-01T01:25:17.762Z,19.15
2022-10-01T01:27:51.419Z,24.10
2022-10-01T01:30:21.071Z,20.88
2022-10-01T01:32:54.944Z,17.92
2022-10-01T01:35:30.059Z,21.48
2022-10-01T01:38:03.363Z,21.83
2022-10-01T01:40:34.560Z,21.65
2022-10-01T01:43:06.258Z,19.73
2022-10-01T01:45:40.212Z,19.75
2022-10-01T01:48:10.437Z,19.92
2022-10-01T01:50:44.571Z,23.10
2022-10-01T01:53:12.656Z,23.90
2022-10-01T01:55:40.926Z,22.95
2022-10-01T01:58:09.364Z,25.60
2022-10-01T02:00:39.298Z,21.67
2022-10-01T02:03:07.455Z,23.85
2022-10-01T02:05:43.476Z,24.13
2022-10-01T02:08:27.857Z,24.83
2022-10-01T02:11:08.203Z,26.92
2022-10-01T02:13:48.208Z,26.15
2022-10-01T02:16:26.189Z,29.75
2022-10-01T02:19:00.256Z,28.02
2022-10-01T02:21:36.448Z,31.02
2022-10-01T02:24:08.876Z,29.75
2022-10-01T02:26:39.199Z,29.13
2022-10-01T02:29:09.911Z,29.05
2022-10-01T02:31:41.319Z,29.20
2022-10-01T02:34:12.802Z,31.30
2022-10-01T02:36:42.624Z,32.93
2022-10-01T02:39:12.897Z,31.73
2022-10-01T02:41:43.622Z,33.65
2022-10-01T02:44:16.456Z,32.97
2022-10-01T02:46:54.089Z,33.53
2022-10-01T02:49:22.295Z,32.70
2022-10-01T02:51:58.951Z,33.72
2022-10-01T02:54:31.859Z,31.02
2022-10-01T02:57:17.559Z,31.65
2022-10-01T02:59:45.905Z,31.25
2022-10-01T03:02:15.438Z,31.83
2022-10-01T03:04:43.477Z,29.20
2022-10-01T03:07:11.551Z,29.92
2022-10-01T03:09:39.512Z,29.27
2022-10-01T03:12:07.923Z,30.15
2022-10-01T03:14:35.905Z,33.10
2022-10-01T03:17:04.153Z,30.20
2022-10-01T03:19:33.561Z,32.33
2022-10-01T03:22:01.681Z,31.90
2022-10-01T03:24:29.716Z,29.63
2022-10-01T03:26:58.321Z,28.92
2022-10-01T03:29:26.610Z,29.35
2022-10-01T03:31:55.146Z,23.65
2022-10-01T03:34:24.039Z,20.35
2022-10-01T03:36:53.436Z,28.58
2022-10-01T03:39:21.814Z,30.67
2022-10-01T03:41:49.964Z,32.50
2022-10-01T03:44:17.946Z,30.35
2022-10-01T03:46:46.232Z,24.38
2022-10-01T03:49:14.231Z,23.92
2022-10-01T03:51:42.236Z,28.45
2022-10-01T03:54:11.699Z,27.80
2022-10-01T03:56:40.969Z,24.15
2022-10-01T03:59:08.960Z,24.17
2022-10-01T04:01:37.482Z,22.88
2022-10-01T04:04:06.319Z,24.30
2022-10-01T04:06:34.469Z,23.40
2022-10-01T04:09:02.686Z,22.45
2022-10-01T04:11:32.495Z,21.55
2022-10-01T04:14:00.865Z,22.98
2022-10-01T04:16:29.018Z,23.05
2022-10-01T04:18:57.079Z,22.10
2022-10-01T04:21:25.110Z,18.88
2022-10-01T04:23:53.455Z,21.13
2022-10-01T04:26:21.475Z,19.58
2022-10-01T04:28:50.844Z,23.83
2022-10-01T04:31:27.655Z,18.50
2022-10-01T04:33:57.827Z,15.57
2022-10-01T04:36:26.579Z,14.43
2022-10-01T04:38:59.387Z,17.63
2022-10-01T04:41:31.152Z,15.50
2022-10-01T04:44:01.129Z,15.98
2022-10-01T04:46:29.798Z,16.15
2022-10-01T04:48:57.925Z,14.77
2022-10-01T04:51:25.987Z,16.88
2022-10-01T04:53:54.084Z,16.45
2022-10-01T04:56:22.090Z,16.90
2022-10-01T04:58:50.180Z,14.05
2022-10-01T05:01:19.599Z,16.23
2022-10-01T05:03:47.880Z,17.10
2022-10-01T05:06:15.900Z,16.70
2022-10-01T05:08:43.878Z,17.23
2022-10-01T05:11:11.880Z,16.02
2022-10-01T05:13:39.930Z,31.88
2022-10-01T05:16:08.215Z,26.52
2022-10-01T05:18:37.612Z,18.50
2022-10-01T05:21:06.516Z,14.65
2022-10-01T05:23:34.771Z,16.80
2022-10-01T05:26:04.350Z,18.05
2022-10-01T05:28:32.596Z,20.40
2022-10-01T05:31:01.190Z,18.38
2022-10-01T05:33:29.799Z,17.45
2022-10-01T05:35:59.448Z,18.75
2022-10-01T05:38:27.448Z,22.17
2022-10-01T05:40:55.453Z,17.88
2022-10-01T05:43:25.676Z,18.08
2022-10-01T05:45:53.922Z,18.85
2022-10-01T05:48:22.027Z,18.83
2022-10-01T05:50:50.104Z,22.25
2022-10-01T05:53:19.524Z,19.70
2022-10-01T05:55:48.028Z,17.38
2022-10-01T05:58:16.224Z,21.50
2022-10-01T06:00:44.488Z,20.25
2022-10-01T06:03:13.812Z,18.27
2022-10-01T06:05:42.036Z,19.35
2022-10-01T06:08:10.826Z,18.50
2022-10-01T06:10:40.607Z,18.02
2022-10-01T06:13:08.945Z,19.20
2022-10-01T06:15:39.095Z,17.98
2022-10-01T06:18:08.840Z,19.38
2022-10-01T06:20:37.452Z,19.48
2022-10-01T06:23:07.606Z,18.98
2022-10-01T06:25:37.259Z,20.42
2022-10-01T06:28:10.700Z,22.15
2022-10-01T06:30:40.391Z,21.67
2022-10-01T06:33:10.297Z,18.05
2022-10-01T06:35:43.347Z,19.73
2022-10-01T06:38:12.029Z,18.88
2022-10-01T06:40:40.534Z,21.90
2022-10-01T06:43:10.295Z,21.20
2022-10-01T06:45:40.711Z,22.75
2022-10-01T06:48:08.807Z,21.92
2022-10-01T06:50:37.021Z,23.95
2022-10-01T06:53:04.620Z,22.08
2022-10-01T06:55:34.410Z,21.13
2022-10-01T06:58:05.028Z,23.05
2022-10-01T07:00:36.354Z,20.45
2022-10-01T07:03:06.676Z,20.33
2022-10-01T07:05:34.782Z,21.65
2022-10-01T07:08:03.119Z,23.25
2022-10-01T07:10:32.296Z,19.02
2022-10-01T07:13:07.771Z,23.42
2022-10-01T07:15:37.669Z,18.15
2022-10-01T07:18:06.953Z,21.15
2022-10-01T07:20:39.602Z,26.77
2022-10-01T07:25:36.398Z,22.42
2022-10-01T07:28:06.031Z,23.80
2022-10-01T07:30:34.620Z,22.05
2022-10-01T07:33:04.025Z,20.92
2022-10-01T07:35:32.002Z,22.13
2022-10-01T07:38:00.228Z,19.98
2022-10-01T07:40:28.225Z,22.95
2022-10-01T07:42:57.714Z,22.80
2022-10-01T07:45:28.182Z,23.05
2022-10-01T07:47:56.460Z,22.30
2022-10-01T07:50:26.978Z,20.80
2022-10-01T07:52:56.302Z,23.58
2022-10-01T07:55:26.526Z,22.23
2022-10-01T07:57:55.408Z,20.63
2022-10-01T08:00:25.023Z,22.40
2022-10-01T08:02:56.174Z,23.45
2022-10-01T08:05:27.591Z,22.52
2022-10-01T08:07:59.584Z,22.27
2022-10-01T08:10:28.112Z,23.58
2022-10-01T08:13:01.578Z,23.65
2022-10-01T08:15:29.782Z,23.08
2022-10-01T08:17:57.787Z,22.83
2022-10-01T08:20:27.170Z,23.52
2022-10-01T08:22:55.251Z,24.40
2022-10-01T08:25:23.243Z,22.77
2022-10-01T08:27:51.259Z,26.60
2022-10-01T08:30:19.333Z,23.73
2022-10-01T08:32:47.321Z,25.63
2022-10-01T08:35:15.390Z,26.27
2022-10-01T08:37:45.273Z,26.98
2022-10-01T08:40:13.276Z,26.10
2022-10-01T08:42:52.107Z,24.38
2022-10-01T08:45:26.854Z,24.40
2022-10-01T08:48:01.960Z,26.70
2022-10-01T08:50:47.997Z,26.33
2022-10-01T08:53:23.737Z,25.98
2022-10-01T08:55:53.231Z,24.15
2022-10-01T08:58:28.114Z,25.83
2022-10-01T09:00:56.949Z,25.45
2022-10-01T09:03:26.378Z,27.23
2022-10-01T09:06:05.091Z,26.92
2022-10-01T09:08:46.901Z,27.67
2022-10-01T09:11:24.004Z,26.60
2022-10-01T09:14:12.266Z,27.13
2022-10-01T09:16:48.719Z,28.02
2022-10-01T09:19:33.356Z,28.00
2022-10-01T09:22:07.413Z,28.10
2022-10-01T09:24:44.451Z,30.88
2022-10-01T09:27:16.411Z,30.65
2022-10-01T09:29:49.991Z,32.35
2022-10-01T09:32:23.598Z,32.78
2022-10-01T09:34:52.080Z,31.88
2022-10-01T09:37:27.275Z,32.75
2022-10-01T09:40:05.858Z,33.88
2022-10-01T09:42:34.208Z,31.88
2022-10-01T09:45:02.206Z,31.85
2022-10-01T09:47:30.180Z,34.10
2022-10-01T09:50:01.943Z,30.23
2022-10-01T09:52:35.677Z,31.42
2022-10-01T09:55:08.272Z,32.47
2022-10-01T09:57:40.071Z,32.55
2022-10-01T10:00:11.849Z,35.17
2022-10-01T10:02:48.404Z,33.50
2022-10-01T10:05:19.262Z,29.10
2022-10-01T10:07:48.962Z,29.80
2022-10-01T10:10:26.085Z,29.90
2022-10-01T10:12:59.085Z,26.17
2022-10-01T10:15:27.525Z,26.52
2022-10-01T10:17:57.626Z,27.05
2022-10-01T10:20:30.997Z,25.40
2022-10-01T10:23:10.200Z,25.35
2022-10-01T10:25:39.570Z,26.13
2022-10-01T10:28:20.721Z,26.05
2022-10-01T10:30:49.603Z,26.88
2022-10-01T10:33:20.969Z,26.35
2022-10-01T10:35:59.187Z,23.92
2022-10-01T10:38:30.668Z,26.40
2022-10-01T10:41:00.279Z,24.88
2022-10-01T10:43:32.195Z,28.75
2022-10-01T10:46:00.337Z,27.70
2022-10-01T10:48:32.970Z,25.85
2022-10-01T10:51:02.784Z,26.88
2022-10-01T10:53:40.819Z,24.00
2022-10-01T10:56:20.183Z,25.60
2022-10-01T10:58:49.156Z,24.95
2022-10-01T11:01:20.343Z,22.73
2022-10-01T11:03:50.442Z,22.92
2022-10-01T11:06:19.282Z,22.13
2022-10-01T11:08:57.290Z,20.65
2022-10-01T11:11:40.895Z,19.30
2022-10-01T11:14:23.999Z,13.85
2022-10-01T11:17:06.066Z,11.52
2022-10-01T11:19:57.153Z,11.02
2022-10-01T11:22:41.547Z,9.77
2022-10-01T11:25:23.748Z,10.23
2022-10-01T11:28:04.395Z,10.07
2022-10-01T11:30:43.420Z,9.35
2022-10-01T11:33:24.264Z,9.77
2022-10-01T11:36:00.264Z,8.82
2022-10-01T11:38:45.747Z,9.45
2022-10-01T11:41:29.211Z,10.80
2022-10-01T11:44:03.553Z,10.27
2022-10-01T11:46:53.529Z,11.13
2022-10-01T11:49:34.755Z,10.90
2022-10-01T11:52:16.017Z,10.13
2022-10-01T11:55:20.093Z,10.68
2022-10-01T11:58:10.655Z,9.85
2022-10-01T12:00:42.418Z,10.25
2022-10-01T12:03:19.620Z,11.00
2022-10-01T12:05:48.181Z,11.07
2022-10-01T12:08:24.404Z,11.93
2022-10-01T12:10:58.982Z,9.63
2022-10-01T12:13:32.866Z,8.55
2022-10-01T12:16:12.645Z,9.27
2022-10-01T12:18:52.773Z,8.48
2022-10-01T12:21:24.292Z,10.07
2022-10-01T12:23:55.781Z,10.23
2022-10-01T12:26:43.067Z,9.70
2022-10-01T12:29:18.284Z,8.82
2022-10-01T12:31:55.617Z,7.50
2022-10-01T12:34:36.839Z,7.57
2022-10-01T12:37:17.888Z,7.50
2022-10-01T12:40:08.355Z,6.88
2022-10-01T12:43:04.173Z,7.78
2022-10-01T12:45:45.148Z,7.15
2022-10-01T12:48:20.745Z,7.15
2022-10-01T12:50:58.483Z,7.07
2022-10-01T12:53:33.999Z,6.45
2022-10-01T12:56:09.833Z,7.80
2022-10-01T12:58:51.397Z,8.05
2022-10-01T13:01:34.485Z,7.57
2022-10-01T13:04:35.071Z,7.95
2022-10-01T13:07:21.855Z,6.90
2022-10-01T13:10:01.356Z,8.75
2022-10-01T13:12:46.656Z,8.10
2022-10-01T13:15:19.571Z,7.07
2022-10-01T13:17:53.756Z,8.00
2022-10-01T13:20:32.329Z,8.73
2022-10-01T13:23:09.730Z,7.65
2022-10-01T13:25:44.668Z,7.53
2022-10-01T13:28:18.795Z,7.70
2022-10-01T13:30:59.237Z,6.70
2022-10-01T13:33:29.352Z,8.05
2022-10-01T13:36:00.719Z,8.20
2022-10-01T13:38:32.304Z,7.93
2022-10-01T13:41:03.446Z,7.50
2022-10-01T13:43:33.936Z,6.90
2022-10-01T13:46:09.218Z,7.45
2022-10-01T13:48:45.967Z,8.82
2022-10-01T13:51:16.644Z,11.13
2022-10-01T13:53:52.160Z,10.70
2022-10-01T13:56:32.716Z,11.02
2022-10-01T13:59:00.950Z,11.85
2022-10-01T14:01:32.212Z,12.05
2022-10-01T14:04:06.865Z,11.73
2022-10-01T14:06:44.638Z,11.10
2022-10-01T14:09:16.928Z,11.52
2022-10-01T14:12:06.165Z,12.05
2022-10-01T14:15:09.334Z,13.00
2022-10-01T14:17:38.124Z,11.85
2022-10-01T14:20:07.381Z,12.90
2022-10-01T14:22:51.478Z,14.38
2022-10-01T14:25:30.822Z,15.02
2022-10-01T14:28:24.377Z,13.85
2022-10-01T14:31:01.497Z,16.33
2022-10-01T14:34:00.457Z,16.33
2022-10-01T14:36:35.261Z,16.88
2022-10-01T14:39:15.803Z,16.08
2022-10-01T14:41:44.068Z,16.75
2022-10-01T14:44:24.405Z,18.10
2022-10-01T14:46:54.150Z,18.05
2022-10-01T14:49:25.646Z,16.95
2022-10-01T14:51:59.700Z,17.05
2022-10-01T14:54:31.537Z,16.17
2022-10-01T14:57:00.400Z,17.05
2022-10-01T14:59:35.698Z,16.80
2022-10-01T15:02:17.594Z,16.23
2022-10-01T15:04:47.889Z,17.10
2022-10-01T15:07:17.360Z,19.15
2022-10-01T15:09:47.348Z,21.40
2022-10-01T15:12:17.910Z,20.02
2022-10-01T15:14:47.424Z,21.25
2022-10-01T15:17:20.888Z,20.77
2022-10-01T15:19:52.269Z,19.25
2022-10-01T15:22:23.203Z,19.10
2022-10-01T15:24:54.778Z,19.65
2022-10-01T15:27:23.093Z,19.73
2022-10-01T15:29:56.313Z,18.13
2022-10-01T15:32:27.225Z,17.38
2022-10-01T15:34:57.353Z,17.75
2022-10-01T15:37:31.463Z,13.68
2022-10-01T15:40:01.716Z,13.13
2022-10-01T15:42:31.966Z,14.25
2022-10-01T15:45:22.941Z,12.90
2022-10-01T15:47:52.362Z,14.55
2022-10-01T15:50:22.209Z,14.02
2022-10-01T15:52:55.687Z,12.27
2022-10-01T15:55:31.779Z,11.13
2022-10-01T15:58:07.975Z,11.13
2022-10-01T16:00:45.461Z,10.20
2022-10-01T16:03:24.157Z,8.52
2022-10-01T16:05:55.081Z,8.02
2022-10-01T16:08:26.852Z,5.80
2022-10-01T16:11:21.298Z,6.03
2022-10-01T16:13:50.732Z,5.75
2022-10-01T16:16:24.918Z,6.03
2022-10-01T16:18:59.291Z,5.38
2022-10-01T16:21:27.914Z,5.78
2022-10-01T16:23:57.075Z,5.68
2022-10-01T16:26:48.236Z,6.95
2022-10-01T16:29:26.929Z,6.60
2022-10-01T16:31:56.992Z,8.68
2022-10-01T16:34:27.987Z,5.05
2022-10-01T16:36:55.969Z,5.05
2022-10-01T16:39:24.667Z,5.40
2022-10-01T16:42:19.080Z,4.70
2022-10-01T16:44:43.324Z,4.97
2022-10-01T16:47:12.656Z,5.05
2022-10-01T16:49:41.552Z,5.57
2022-10-01T16:52:14.107Z,4.43
2022-10-01T16:54:42.145Z,5.35
2022-10-01T16:57:11.935Z,5.13
2022-10-01T16:59:39.944Z,4.10
2022-10-01T17:02:11.892Z,4.72
2022-10-01T17:04:40.091Z,3.70
2022-10-01T17:07:08.323Z,3.20
2022-10-01T17:09:36.292Z,2.75
2022-10-01T17:12:04.336Z,2.45
2022-10-01T17:14:33.695Z,2.80
2022-10-01T17:17:01.696Z,3.22
2022-10-01T17:19:29.882Z,3.00
2022-10-01T17:21:57.852Z,3.55
2022-10-01T17:24:25.928Z,3.60
2022-10-01T17:26:53.969Z,3.72
2022-10-01T17:29:21.956Z,4.53
2022-10-01T17:31:53.376Z,4.90
2022-10-01T17:34:22.051Z,4.68
2022-10-01T17:36:50.043Z,3.75
2022-10-01T17:39:18.077Z,3.97
2022-10-01T17:41:46.094Z,4.30
2022-10-01T17:44:14.228Z,3.83
2022-10-01T17:46:42.301Z,3.78
2022-10-01T17:49:11.807Z,3.08
2022-10-01T17:51:39.825Z,2.30
2022-10-01T17:54:07.807Z,2.70
2022-10-01T17:56:36.282Z,2.17
2022-10-01T17:59:04.535Z,1.80
2022-10-01T18:01:32.669Z,1.73
2022-10-01T18:04:01.088Z,1.80
2022-10-01T18:06:31.055Z,2.03
2022-10-01T18:08:59.352Z,1.92
2022-10-01T18:11:28.720Z,2.38
2022-10-01T18:13:56.821Z,1.95
2022-10-01T18:16:25.660Z,2.10
2022-10-01T18:21:47.745Z,2.10
2022-10-01T18:24:16.363Z,2.35
2022-10-01T18:26:45.703Z,2.08
2022-10-01T18:29:19.475Z,2.17
2022-10-01T18:31:51.746Z,3.80
2022-10-01T18:34:26.680Z,2.60
2022-10-01T18:37:01.053Z,2.78
2022-10-01T18:39:36.262Z,2.58
2022-10-01T18:42:11.788Z,2.80
2022-10-01T18:44:39.799Z,2.35
2022-10-01T18:47:19.346Z,2.33
2022-10-01T18:50:07.669Z,2.63
2022-10-01T18:52:49.374Z,2.85
2022-10-01T18:55:40.366Z,3.47
2022-10-01T18:58:43.343Z,3.70
2022-10-01T19:01:22.170Z,3.60
2022-10-01T19:04:09.954Z,3.80
2022-10-01T19:06:50.149Z,4.55
2022-10-01T19:09:45.703Z,4.78
2022-10-01T19:12:36.032Z,4.68
2022-10-01T19:15:15.163Z,4.63
2022-10-01T19:17:51.801Z,5.40
2022-10-01T19:20:48.812Z,5.28
2022-10-01T19:23:39.718Z,5.07
2022-10-01T19:26:15.782Z,5.95
2022-10-01T19:29:04.399Z,6.85
2022-10-01T19:31:37.614Z,6.35
2022-10-01T19:34:11.048Z,6.15
2022-10-01T19:36:45.212Z,7.78
2022-10-01T19:39:21.487Z,7.18
2022-10-01T19:41:55.012Z,7.25
2022-10-01T19:44:29.451Z,7.75
2022-10-01T19:47:06.662Z,8.60
2022-10-01T19:49:38.328Z,7.30
2022-10-01T19:52:13.621Z,7.28
2022-10-01T19:54:47.476Z,8.23
2022-10-01T19:57:22.645Z,8.50
2022-10-01T19:59:50.864Z,8.90
2022-10-01T20:02:32.607Z,9.27
2022-10-01T20:05:05.293Z,9.88
2022-10-01T20:10:19.590Z,10.15
2022-10-01T20:12:57.193Z,9.63
2022-10-01T20:15:40.735Z,9.68
2022-10-01T20:18:27.152Z,9.25
2022-10-01T20:21:08.570Z,9.60
2022-10-01T20:23:45.125Z,9.18
2022-10-01T20:26:24.504Z,9.07
2022-10-01T20:29:19.750Z,8.52
2022-10-01T20:31:55.602Z,8.05
2022-10-01T20:34:31.165Z,8.15
2022-10-01T20:37:12.201Z,8.25
2022-10-01T20:39:44.848Z,9.27
2022-10-01T20:44:47.456Z,8.75
2022-10-01T20:47:22.525Z,9.27
2022-10-01T20:49:59.655Z,10.05
2022-10-01T20:52:35.041Z,8.55
2022-10-01T20:55:09.428Z,8.48
2022-10-01T20:57:43.689Z,7.90
2022-10-01T21:00:19.848Z,9.25
2022-10-01T21:02:52.225Z,8.23
2022-10-01T21:05:24.329Z,8.88
2022-10-01T21:07:58.466Z,8.70
2022-10-01T21:10:35.908Z,9.55
2022-10-01T21:13:11.754Z,9.55
2022-10-01T21:15:53.874Z,9.00
2022-10-01T21:18:34.222Z,8.63
2022-10-01T21:21:15.887Z,9.43
2022-10-01T21:23:57.486Z,9.45
2022-10-01T21:26:35.849Z,8.73
2022-10-01T21:29:22.230Z,9.80
2022-10-01T21:32:07.487Z,8.90
2022-10-01T21:34:51.785Z,7.95
2022-10-01T21:37:30.865Z,7.97
2022-10-01T21:40:08.263Z,8.80
2022-10-01T21:42:50.637Z,8.23
2022-10-01T21:45:30.317Z,8.35
2022-10-01T21:48:16.491Z,6.78
2022-10-01T21:50:51.738Z,7.30
2022-10-01T21:53:43.618Z,6.85
2022-10-01T21:56:49.285Z,7.45
2022-10-01T21:59:35.624Z,6.20
2022-10-01T22:02:18.296Z,6.95
2022-10-01T22:04:53.726Z,6.82
2022-10-01T22:07:28.219Z,6.35
2022-10-01T22:10:09.394Z,6.50
2022-10-01T22:12:41.546Z,7.03
2022-10-01T22:15:22.172Z,6.57
2022-10-01T22:17:54.223Z,6.55
2022-10-01T22:20:28.415Z,6.20
2022-10-01T22:23:01.449Z,6.68
2022-10-01T22:25:30.867Z,6.10
2022-10-01T22:28:03.912Z,6.10
2022-10-01T22:30:38.057Z,5.05
2022-10-01T22:33:11.644Z,5.85
2022-10-01T22:35:48.233Z,5.97
2022-10-01T22:38:21.996Z,5.63
2022-10-01T22:41:01.718Z,5.63
2022-10-01T22:43:30.064Z,6.32
2022-10-01T22:46:14.052Z,6.50
2022-10-01T22:48:54.088Z,6.00
2022-10-01T22:51:41.728Z,6.10
2022-10-01T22:54:32.296Z,5.78
2022-10-01T22:57:12.392Z,6.20
2022-10-01T22:59:50.420Z,6.03
2022-10-01T23:02:29.652Z,5.22
2022-10-01T23:05:10.013Z,5.15
2022-10-01T23:07:50.554Z,4.57
2022-10-01T23:10:23.926Z,4.70
2022-10-01T23:12:59.185Z,4.72
2022-10-01T23:15:35.298Z,4.80
2022-10-01T23:18:10.448Z,4.55
2022-10-01T23:20:45.212Z,4.65
2022-10-01T23:23:25.777Z,4.80
2022-10-01T23:26:10.223Z,4.10
2022-10-01T23:28:48.998Z,4.07
2022-10-01T23:31:27.277Z,4.40
2022-10-01T23:34:14.607Z,4.00
2022-10-01T23:36:49.817Z,4.25
2022-10-01T23:39:41.517Z,4.03
2022-10-01T23:42:20.986Z,4.10
2022-10-01T23:44:56.191Z,4.50
2022-10-01T23:47:30.287Z,4.50
2022-10-01T23:50:02.178Z,5.20
2022-10-01T23:52:39.802Z,4.32
2022-10-01T23:55:36.354Z,4.70
2022-10-01T23:58:09.121Z,3.95
